createdAt,value
2017-07-07T00:00:04.937Z,16.40
2017-07-07T00:00:54.026Z,16.42
2017-07-07T00:01:54.398Z,16.43
2017-07-07T00:02:48.096Z,16.42
2017-07-07T00:03:42.104Z,16.40
2017-07-07T00:04:37.178Z,16.40
2017-07-07T00:05:37.245Z,16.33
2017-07-07T00:06:37.281Z,16.32
2017-07-07T00:07:31.386Z,16.29
2017-07-07T00:08:31.404Z,16.25
2017-07-07T00:09:26.331Z,16.24
2017-07-07T00:10:21.390Z,16.22
2017-07-07T00:11:22.392Z,16.22
2017-07-07T00:12:22.626Z,16.24
2017-07-07T00:13:22.540Z,16.21
2017-07-07T00:14:17.548Z,16.20
2017-07-07T00:15:11.535Z,16.20
2017-07-07T00:16:11.629Z,16.18
2017-07-07T00:17:06.664Z,16.14
2017-07-07T00:18:06.704Z,16.16
2017-07-07T00:19:00.721Z,16.12
2017-07-07T00:20:01.819Z,16.10
2017-07-07T00:21:07.909Z,16.07
2017-07-07T00:22:01.830Z,16.06
2017-07-07T00:23:01.902Z,16.06
2017-07-07T00:23:55.985Z,16.08
2017-07-07T00:24:51.018Z,16.13
2017-07-07T00:25:46.144Z,16.08
2017-07-07T00:26:41.173Z,16.08
2017-07-07T00:27:47.038Z,16.08
2017-07-07T00:28:41.118Z,16.04
2017-07-07T00:29:41.130Z,16.06
2017-07-07T00:30:36.176Z,16.06
2017-07-07T00:31:36.294Z,16.04
2017-07-07T00:32:30.252Z,16.00
2017-07-07T00:33:30.375Z,16.01
2017-07-07T00:34:25.386Z,16.02
2017-07-07T00:35:20.449Z,16.00
2017-07-07T00:36:20.431Z,16.01
2017-07-07T00:37:15.494Z,16.00
2017-07-07T00:38:10.572Z,16.00
2017-07-07T00:39:10.580Z,15.98
2017-07-07T00:40:05.515Z,15.97
2017-07-07T00:41:00.859Z,15.95
2017-07-07T00:42:06.771Z,15.96
2017-07-07T00:43:00.727Z,15.98
2017-07-07T00:44:00.705Z,15.97
2017-07-07T00:44:55.825Z,15.95
2017-07-07T00:45:55.760Z,15.94
2017-07-07T00:46:56.159Z,15.94
2017-07-07T00:48:02.979Z,15.93
2017-07-07T00:49:02.945Z,15.96
2017-07-07T00:50:08.939Z,15.95
2017-07-07T00:51:03.958Z,15.93
2017-07-07T00:52:03.983Z,15.94
2017-07-07T00:52:59.081Z,15.88
2017-07-07T00:53:54.186Z,15.87
2017-07-07T00:54:54.139Z,15.90
2017-07-07T00:55:49.107Z,15.92
2017-07-07T00:56:44.160Z,15.92
2017-07-07T00:57:45.318Z,15.87
2017-07-07T00:58:46.360Z,15.83
2017-07-07T00:59:41.543Z,15.77
2017-07-07T01:00:41.391Z,15.77
2017-07-07T01:01:41.343Z,15.74
2017-07-07T01:02:41.718Z,15.71
2017-07-07T01:03:36.519Z,15.71
2017-07-07T01:04:31.826Z,15.73
2017-07-07T01:05:31.592Z,15.69
2017-07-07T01:06:26.632Z,15.72
2017-07-07T01:07:21.874Z,15.69
2017-07-07T01:08:21.732Z,15.68
2017-07-07T01:09:16.713Z,15.65
2017-07-07T01:10:16.767Z,15.66
2017-07-07T01:11:11.852Z,15.66
2017-07-07T01:12:05.792Z,15.67
2017-07-07T01:13:06.905Z,15.65
2017-07-07T01:13:55.992Z,15.68
2017-07-07T01:14:50.924Z,15.69
2017-07-07T01:15:44.993Z,15.70
2017-07-07T01:16:33.283Z,15.70
2017-07-07T01:17:21.149Z,15.68
2017-07-07T01:18:10.163Z,15.70
2017-07-07T01:19:05.148Z,15.74
2017-07-07T01:19:53.334Z,15.74
2017-07-07T01:20:42.445Z,15.74
2017-07-07T01:21:30.280Z,15.74
2017-07-07T01:22:19.310Z,15.74
2017-07-07T01:23:14.423Z,15.74
2017-07-07T01:24:02.482Z,15.78
2017-07-07T01:24:51.497Z,15.77
2017-07-07T01:25:46.513Z,15.81
2017-07-07T01:26:34.507Z,15.80
2017-07-07T01:27:23.949Z,15.82
2017-07-07T01:28:11.695Z,15.79
2017-07-07T01:29:05.823Z,15.80
2017-07-07T01:30:05.732Z,15.78
2017-07-07T01:31:05.702Z,15.78
2017-07-07T01:32:00.791Z,15.78
2017-07-07T01:32:54.998Z,15.80
2017-07-07T01:33:54.829Z,15.78
2017-07-07T01:34:49.953Z,15.79
2017-07-07T01:35:39.022Z,15.77
2017-07-07T01:36:27.020Z,15.79
2017-07-07T01:37:15.045Z,15.78
2017-07-07T01:38:15.191Z,15.80
2017-07-07T01:39:09.137Z,15.82
2017-07-07T01:40:09.132Z,15.80
2017-07-07T01:41:04.237Z,15.79
2017-07-07T01:41:59.199Z,15.76
2017-07-07T01:43:00.261Z,15.76
2017-07-07T01:44:00.348Z,15.78
2017-07-07T01:44:49.393Z,15.81
2017-07-07T01:45:38.373Z,15.80
2017-07-07T01:46:32.724Z,15.82
2017-07-07T01:47:27.411Z,15.86
2017-07-07T01:48:21.515Z,15.85
2017-07-07T01:49:16.786Z,15.86
2017-07-07T01:50:10.573Z,15.88
2017-07-07T01:51:05.614Z,15.86
2017-07-07T01:51:59.728Z,15.83
2017-07-07T01:53:05.678Z,15.82
2017-07-07T01:54:05.758Z,15.81
2017-07-07T01:54:59.804Z,15.81
2017-07-07T01:56:00.772Z,15.79
2017-07-07T01:57:00.944Z,15.78
2017-07-07T01:57:55.950Z,15.80
2017-07-07T01:58:55.916Z,15.81
2017-07-07T01:59:50.115Z,15.78
2017-07-07T02:00:50.018Z,15.80
2017-07-07T02:01:44.134Z,15.83
2017-07-07T02:02:39.134Z,15.84
2017-07-07T02:03:39.159Z,15.85
2017-07-07T02:04:34.121Z,15.85
2017-07-07T02:05:28.190Z,15.85
2017-07-07T02:06:22.318Z,15.82
2017-07-07T02:07:17.353Z,15.81
2017-07-07T02:08:12.292Z,15.82
2017-07-07T02:09:07.425Z,15.79
2017-07-07T02:09:56.437Z,15.82
2017-07-07T02:10:56.463Z,15.81
2017-07-07T02:11:45.618Z,15.80
2017-07-07T02:12:34.637Z,15.80
2017-07-07T02:13:22.549Z,15.79
2017-07-07T02:14:11.626Z,15.82
2017-07-07T02:14:59.751Z,15.80
2017-07-07T02:15:47.730Z,15.81
2017-07-07T02:16:35.728Z,15.81
2017-07-07T02:17:25.143Z,15.78
2017-07-07T02:18:12.886Z,15.78
2017-07-07T02:19:07.177Z,15.76
2017-07-07T02:19:54.946Z,15.78
2017-07-07T02:20:55.009Z,15.82
2017-07-07T02:21:43.089Z,15.81
2017-07-07T02:22:32.184Z,15.85
2017-07-07T02:23:21.092Z,15.84
2017-07-07T02:24:09.182Z,15.85
2017-07-07T02:25:03.193Z,15.84
2017-07-07T02:25:57.237Z,15.85
2017-07-07T02:26:46.354Z,15.83
2017-07-07T02:27:35.379Z,15.83
2017-07-07T02:28:29.673Z,15.84
2017-07-07T02:29:24.423Z,15.84
2017-07-07T02:30:25.442Z,15.84
2017-07-07T02:31:25.530Z,15.86
2017-07-07T02:32:25.648Z,15.84
2017-07-07T02:33:19.687Z,15.87
2017-07-07T02:34:19.645Z,15.87
2017-07-07T02:35:19.736Z,15.90
2017-07-07T02:36:19.682Z,15.88
2017-07-07T02:37:13.738Z,15.91
2017-07-07T02:38:13.788Z,15.93
2017-07-07T02:39:13.840Z,15.91
2017-07-07T02:40:07.880Z,15.91
2017-07-07T02:41:07.815Z,15.88
2017-07-07T02:42:03.089Z,15.87
2017-07-07T02:42:57.968Z,15.88
2017-07-07T02:43:57.923Z,15.87
2017-07-07T02:44:53.017Z,15.86
2017-07-07T02:45:53.111Z,15.89
2017-07-07T02:46:53.068Z,15.93
2017-07-07T02:47:53.163Z,15.96
2017-07-07T02:48:47.133Z,15.94
2017-07-07T02:49:35.286Z,15.94
2017-07-07T02:50:23.311Z,15.92
2017-07-07T02:51:11.278Z,15.89
2017-07-07T02:52:05.334Z,15.90
2017-07-07T02:52:54.350Z,15.86
2017-07-07T02:53:48.475Z,15.84
2017-07-07T02:54:43.458Z,15.84
2017-07-07T02:55:43.569Z,15.85
2017-07-07T02:56:43.554Z,15.86
2017-07-07T02:57:37.593Z,15.85
2017-07-07T02:58:25.707Z,15.86
2017-07-07T02:59:13.746Z,15.88
2017-07-07T03:00:01.728Z,15.94
2017-07-07T03:00:49.841Z,15.94
2017-07-07T03:01:43.916Z,15.97
2017-07-07T03:02:38.861Z,15.98
2017-07-07T03:03:33.938Z,15.98
2017-07-07T03:04:34.970Z,15.96
2017-07-07T03:05:34.914Z,15.95
2017-07-07T03:06:35.048Z,15.95
2017-07-07T03:07:30.063Z,15.94
2017-07-07T03:08:24.031Z,15.93
2017-07-07T03:09:24.122Z,15.92
2017-07-07T03:10:19.227Z,15.92
2017-07-07T03:11:14.168Z,15.93
2017-07-07T03:12:14.505Z,15.92
2017-07-07T03:13:09.245Z,15.92
2017-07-07T03:14:04.333Z,15.92
2017-07-07T03:15:04.314Z,15.94
2017-07-07T03:15:59.376Z,15.94
2017-07-07T03:16:54.402Z,15.92
2017-07-07T03:17:48.538Z,15.92
2017-07-07T03:18:48.548Z,15.96
2017-07-07T03:19:43.574Z,15.95
2017-07-07T03:20:38.606Z,15.92
2017-07-07T03:21:38.682Z,15.93
2017-07-07T03:22:33.885Z,15.95
2017-07-07T03:23:33.767Z,15.96
2017-07-07T03:24:34.750Z,15.97
2017-07-07T03:25:34.784Z,15.98
2017-07-07T03:26:34.789Z,15.94
2017-07-07T03:27:34.909Z,15.92
2017-07-07T03:28:34.927Z,15.94
2017-07-07T03:29:34.961Z,15.94
2017-07-07T03:30:40.957Z,15.98
2017-07-07T03:31:35.998Z,15.97
2017-07-07T03:32:30.309Z,15.98
2017-07-07T03:33:30.283Z,15.96
2017-07-07T03:34:25.183Z,15.94
2017-07-07T03:35:20.139Z,15.90
2017-07-07T03:36:21.214Z,15.92
2017-07-07T03:37:27.233Z,15.92
2017-07-07T03:38:21.291Z,15.90
2017-07-07T03:39:27.436Z,15.92
2017-07-07T03:40:21.377Z,15.92
2017-07-07T03:41:22.326Z,15.91
2017-07-07T03:42:17.434Z,15.92
2017-07-07T03:43:11.416Z,15.92
2017-07-07T03:44:12.493Z,15.92
2017-07-07T03:45:12.685Z,15.97
2017-07-07T03:46:06.581Z,16.02
2017-07-07T03:47:06.637Z,16.16
2017-07-07T03:48:06.681Z,16.23
2017-07-07T03:49:06.732Z,16.25
2017-07-07T03:49:55.774Z,16.26
2017-07-07T03:50:56.810Z,16.28
2017-07-07T03:51:50.820Z,16.26
2017-07-07T03:52:39.892Z,16.24
2017-07-07T03:53:33.849Z,16.23
2017-07-07T03:54:29.052Z,16.22
2017-07-07T03:55:22.944Z,16.21
2017-07-07T03:56:17.054Z,16.21
2017-07-07T03:57:12.096Z,16.21
2017-07-07T03:58:06.084Z,16.20
2017-07-07T03:59:01.116Z,16.16
2017-07-07T04:00:01.277Z,16.14
2017-07-07T04:00:56.264Z,16.10
2017-07-07T04:01:51.410Z,16.07
2017-07-07T04:02:40.332Z,16.11
2017-07-07T04:03:29.386Z,16.07
2017-07-07T04:04:17.388Z,16.09
2017-07-07T04:05:06.406Z,16.09
2017-07-07T04:05:54.512Z,16.10
2017-07-07T04:06:42.741Z,16.08
2017-07-07T04:07:31.722Z,16.02
2017-07-07T04:08:25.609Z,16.01
2017-07-07T04:09:20.630Z,15.97
2017-07-07T04:10:20.728Z,15.89
2017-07-07T04:11:09.830Z,15.94
2017-07-07T04:11:59.091Z,15.89
2017-07-07T04:12:58.896Z,15.87
2017-07-07T04:13:53.905Z,15.88
2017-07-07T04:14:47.963Z,15.82
2017-07-07T04:15:42.948Z,15.72
2017-07-07T04:16:32.066Z,15.73
2017-07-07T04:17:27.060Z,15.68
2017-07-07T04:18:22.251Z,15.62
2017-07-07T04:19:11.336Z,15.59
2017-07-07T04:19:59.289Z,15.63
2017-07-07T04:20:53.228Z,15.62
2017-07-07T04:21:47.310Z,15.61
2017-07-07T04:22:41.334Z,15.56
2017-07-07T04:23:36.338Z,15.54
2017-07-07T04:24:30.613Z,15.58
2017-07-07T04:25:24.423Z,15.50
2017-07-07T04:26:18.485Z,15.56
2017-07-07T04:27:07.577Z,15.58
2017-07-07T04:27:55.555Z,15.62
2017-07-07T04:28:44.868Z,15.60
2017-07-07T04:29:32.692Z,15.64
2017-07-07T04:30:26.690Z,15.63
2017-07-07T04:31:26.784Z,15.70
2017-07-07T04:32:21.696Z,15.74
2017-07-07T04:33:15.799Z,15.74
2017-07-07T04:34:11.023Z,15.74
2017-07-07T04:35:04.964Z,15.72
2017-07-07T04:35:53.904Z,15.86
2017-07-07T04:36:43.035Z,15.86
2017-07-07T04:37:31.126Z,15.86
2017-07-07T04:38:20.077Z,15.82
2017-07-07T04:39:08.197Z,15.84
2017-07-07T04:39:56.301Z,15.88
2017-07-07T04:40:45.388Z,15.93
2017-07-07T04:41:33.281Z,15.93
2017-07-07T04:42:22.356Z,15.95
2017-07-07T04:43:16.391Z,16.04
2017-07-07T04:44:11.448Z,16.13
2017-07-07T04:44:59.629Z,16.26
2017-07-07T04:45:47.498Z,16.29
2017-07-07T04:46:36.560Z,16.38
2017-07-07T04:47:24.837Z,16.38
2017-07-07T04:48:12.639Z,16.50
2017-07-07T04:49:01.725Z,16.59
2017-07-07T04:49:49.777Z,16.78
2017-07-07T04:50:37.827Z,16.87
2017-07-07T04:51:26.877Z,17.02
2017-07-07T04:52:15.113Z,17.01
2017-07-07T04:53:04.166Z,17.19
2017-07-07T04:53:52.222Z,17.30
2017-07-07T04:54:40.150Z,17.47
2017-07-07T04:55:29.329Z,17.60
2017-07-07T04:56:17.324Z,17.60
2017-07-07T04:57:05.437Z,17.73
2017-07-07T04:57:54.493Z,17.79
2017-07-07T04:58:42.472Z,17.74
2017-07-07T04:59:31.534Z,17.73
2017-07-07T05:00:19.571Z,17.76
2017-07-07T05:01:07.597Z,17.94
2017-07-07T05:01:56.785Z,17.92
2017-07-07T05:02:44.741Z,17.81
2017-07-07T05:03:32.839Z,17.66
2017-07-07T05:04:20.883Z,17.62
2017-07-07T05:05:14.984Z,17.65
2017-07-07T05:06:04.010Z,17.73
2017-07-07T05:06:52.039Z,17.73
2017-07-07T05:07:41.044Z,17.75
2017-07-07T05:08:29.045Z,17.65
2017-07-07T05:09:18.088Z,17.56
2017-07-07T05:10:06.108Z,17.60
2017-07-07T05:11:01.093Z,17.57
2017-07-07T05:12:01.367Z,17.75
2017-07-07T05:12:49.301Z,18.03
2017-07-07T05:13:38.179Z,18.15
2017-07-07T05:14:27.497Z,18.32
2017-07-07T05:15:15.271Z,18.36
2017-07-07T05:16:04.403Z,18.22
2017-07-07T05:16:53.473Z,18.34
2017-07-07T05:17:42.485Z,18.47
2017-07-07T05:18:37.753Z,18.44
2017-07-07T05:19:37.547Z,18.44
2017-07-07T05:20:25.903Z,18.30
2017-07-07T05:21:14.748Z,18.30
2017-07-07T05:22:15.774Z,18.30
2017-07-07T05:23:03.791Z,18.28
2017-07-07T05:23:57.902Z,18.05
2017-07-07T05:24:52.102Z,17.88
2017-07-07T05:25:40.084Z,17.69
2017-07-07T05:26:40.003Z,17.56
2017-07-07T05:27:29.053Z,17.54
2017-07-07T05:28:23.133Z,17.58
2017-07-07T05:29:17.202Z,17.58
2017-07-07T05:30:06.279Z,17.69
2017-07-07T05:31:01.359Z,17.83
2017-07-07T05:31:55.346Z,17.88
2017-07-07T05:32:43.355Z,17.95
2017-07-07T05:33:32.706Z,17.93
2017-07-07T05:34:27.595Z,17.89
2017-07-07T05:35:21.830Z,18.01
2017-07-07T05:36:10.583Z,17.94
2017-07-07T05:37:10.832Z,17.90
2017-07-07T05:38:04.709Z,17.84
2017-07-07T05:38:53.718Z,17.79
2017-07-07T05:39:53.805Z,17.76
2017-07-07T05:40:54.107Z,17.80
2017-07-07T05:41:49.075Z,17.68
2017-07-07T05:42:49.155Z,17.53
2017-07-07T05:43:49.234Z,17.44
2017-07-07T05:44:43.257Z,17.32
2017-07-07T05:45:43.333Z,17.38
2017-07-07T05:46:38.337Z,17.45
2017-07-07T05:47:33.333Z,17.54
2017-07-07T05:48:22.381Z,17.54
2017-07-07T05:49:10.359Z,17.70
2017-07-07T05:49:58.545Z,17.77
2017-07-07T05:50:46.652Z,17.92
2017-07-07T05:51:35.642Z,17.93
2017-07-07T05:52:23.668Z,17.96
2017-07-07T05:53:12.029Z,17.93
2017-07-07T05:54:00.533Z,17.92
2017-07-07T05:54:54.908Z,17.98
2017-07-07T05:55:49.667Z,18.03
2017-07-07T05:56:38.732Z,18.22
2017-07-07T05:57:26.779Z,18.32
2017-07-07T05:58:14.878Z,18.43
2017-07-07T05:59:14.966Z,18.46
2017-07-07T06:00:16.356Z,18.64
2017-07-07T06:01:22.064Z,18.66
2017-07-07T06:02:23.271Z,18.92
2017-07-07T06:03:23.229Z,19.10
2017-07-07T06:04:23.386Z,19.36
2017-07-07T06:05:29.330Z,19.46
2017-07-07T06:06:29.621Z,19.83
2017-07-07T06:07:23.679Z,20.00
2017-07-07T06:08:18.573Z,20.46
2017-07-07T06:09:18.875Z,21.00
2017-07-07T06:10:12.916Z,21.14
2017-07-07T06:11:07.797Z,21.04
2017-07-07T06:12:08.182Z,20.76
2017-07-07T06:13:01.916Z,20.92
2017-07-07T06:13:57.036Z,21.23
2017-07-07T06:14:57.066Z,21.39
2017-07-07T06:15:51.293Z,21.53
2017-07-07T06:16:46.293Z,21.74
2017-07-07T06:17:46.436Z,22.01
2017-07-07T06:18:46.636Z,22.48
2017-07-07T06:19:40.628Z,23.00
2017-07-07T06:20:40.748Z,23.51
2017-07-07T06:21:41.760Z,23.85
2017-07-07T06:22:36.840Z,23.95
2017-07-07T06:23:31.913Z,24.14
2017-07-07T06:24:31.996Z,24.07
2017-07-07T06:25:32.097Z,24.08
2017-07-07T06:26:21.164Z,24.15
2017-07-07T06:27:21.230Z,24.39
2017-07-07T06:28:21.302Z,24.66
2017-07-07T06:29:09.379Z,25.10
2017-07-07T06:29:58.435Z,24.88
2017-07-07T06:30:47.520Z,24.61
2017-07-07T06:31:35.602Z,24.34
2017-07-07T06:32:30.748Z,24.53
2017-07-07T06:33:24.866Z,24.61
2017-07-07T06:34:19.860Z,24.60
2017-07-07T06:35:08.931Z,24.77
2017-07-07T06:35:57.007Z,24.66
2017-07-07T06:36:51.083Z,24.54
2017-07-07T06:37:40.149Z,24.19
2017-07-07T06:38:28.201Z,24.26
2017-07-07T06:39:16.266Z,24.46
2017-07-07T06:40:10.505Z,24.46
2017-07-07T06:41:04.483Z,24.55
2017-07-07T06:41:58.583Z,25.14
2017-07-07T06:42:46.609Z,25.11
2017-07-07T06:43:41.699Z,24.95
2017-07-07T06:44:29.860Z,25.14
2017-07-07T06:45:24.969Z,25.43
2017-07-07T06:46:13.999Z,26.00
2017-07-07T06:47:08.061Z,25.82
2017-07-07T06:48:03.108Z,26.05
2017-07-07T06:48:52.197Z,26.36
2017-07-07T06:49:47.258Z,27.12
2017-07-07T06:50:47.314Z,27.59
2017-07-07T06:51:47.422Z,28.18
2017-07-07T06:52:41.467Z,28.44
2017-07-07T06:53:30.594Z,28.75
2017-07-07T06:54:24.725Z,29.07
2017-07-07T06:55:19.682Z,29.41
2017-07-07T06:56:14.831Z,29.19
2017-07-07T06:57:08.959Z,28.71
2017-07-07T06:58:02.988Z,29.02
2017-07-07T06:58:57.165Z,29.48
2017-07-07T06:59:57.131Z,29.61
2017-07-07T07:00:52.194Z,29.40
2017-07-07T07:01:47.364Z,28.13
2017-07-07T07:02:35.374Z,27.89
2017-07-07T07:03:29.456Z,28.34
2017-07-07T07:04:17.541Z,28.62
2017-07-07T07:05:11.659Z,28.50
2017-07-07T07:06:06.674Z,28.74
2017-07-07T07:07:01.028Z,28.82
2017-07-07T07:07:55.860Z,28.68
2017-07-07T07:08:44.962Z,28.89
2017-07-07T07:09:39.004Z,28.57
2017-07-07T07:10:28.149Z,28.24
2017-07-07T07:11:22.171Z,28.61
2017-07-07T07:12:16.402Z,29.23
2017-07-07T07:13:05.311Z,29.71
2017-07-07T07:13:59.461Z,29.96
2017-07-07T07:14:48.573Z,30.04
2017-07-07T07:15:43.620Z,30.49
2017-07-07T07:16:37.666Z,30.44
2017-07-07T07:17:31.747Z,29.77
2017-07-07T07:18:25.815Z,30.15
2017-07-07T07:19:25.939Z,30.41
2017-07-07T07:20:21.028Z,30.24
2017-07-07T07:21:21.101Z,29.97
2017-07-07T07:22:21.194Z,29.21
2017-07-07T07:23:22.260Z,28.70
2017-07-07T07:24:22.341Z,28.04
2017-07-07T07:25:28.422Z,27.98
2017-07-07T07:26:22.511Z,27.45
2017-07-07T07:27:16.590Z,28.02
2017-07-07T07:28:10.631Z,28.38
2017-07-07T07:28:58.749Z,28.53
2017-07-07T07:29:58.859Z,28.48
2017-07-07T07:30:58.909Z,28.64
2017-07-07T07:31:53.009Z,28.60
2017-07-07T07:32:48.017Z,28.58
2017-07-07T07:33:37.196Z,28.22
2017-07-07T07:34:37.260Z,28.67
2017-07-07T07:35:37.326Z,28.34
2017-07-07T07:36:32.437Z,27.56
2017-07-07T07:37:26.543Z,27.82
2017-07-07T07:38:20.529Z,28.06
2017-07-07T07:39:20.657Z,27.88
2017-07-07T07:40:15.719Z,27.71
2017-07-07T07:41:09.731Z,28.13
2017-07-07T07:41:57.920Z,28.53
2017-07-07T07:42:45.810Z,28.91
2017-07-07T07:43:35.027Z,29.47
2017-07-07T07:44:24.116Z,29.64
2017-07-07T07:45:18.254Z,29.74
2017-07-07T07:46:12.398Z,29.72
2017-07-07T07:47:13.376Z,30.01
2017-07-07T07:48:08.434Z,29.90
2017-07-07T07:48:57.505Z,29.31
2017-07-07T07:49:52.617Z,28.77
2017-07-07T07:50:46.622Z,28.96
2017-07-07T07:51:47.770Z,29.13
2017-07-07T07:52:36.875Z,29.11
2017-07-07T07:53:25.968Z,29.06
2017-07-07T07:54:15.054Z,29.45
2017-07-07T07:55:04.130Z,30.06
2017-07-07T07:55:53.199Z,29.84
2017-07-07T07:56:47.309Z,30.06
2017-07-07T07:57:35.336Z,30.41
2017-07-07T07:58:29.436Z,30.46
2017-07-07T07:59:23.556Z,30.22
2017-07-07T08:00:18.633Z,30.29
2017-07-07T08:01:12.736Z,30.30
2017-07-07T08:02:07.866Z,30.45
2017-07-07T08:02:56.905Z,30.45
2017-07-07T08:03:45.010Z,30.42
2017-07-07T08:04:45.053Z,30.25
2017-07-07T08:05:34.102Z,30.58
2017-07-07T08:06:22.260Z,30.65
2017-07-07T08:07:16.380Z,30.70
2017-07-07T08:08:05.454Z,30.60
2017-07-07T08:08:54.423Z,30.56
2017-07-07T08:09:48.538Z,30.62
2017-07-07T08:10:43.605Z,30.56
2017-07-07T08:11:37.751Z,30.56
2017-07-07T08:12:31.751Z,30.98
2017-07-07T08:13:19.904Z,31.07
2017-07-07T08:14:13.972Z,30.87
2017-07-07T08:15:13.990Z,30.82
2017-07-07T08:16:08.074Z,30.88
2017-07-07T08:17:09.461Z,31.08
2017-07-07T08:18:04.291Z,30.80
2017-07-07T08:18:58.463Z,31.04
2017-07-07T08:19:47.517Z,30.85
2017-07-07T08:20:36.573Z,31.16
2017-07-07T08:21:36.705Z,31.31
2017-07-07T08:22:25.893Z,31.10
2017-07-07T08:23:14.820Z,31.30
2017-07-07T08:24:03.926Z,31.54
2017-07-07T08:24:53.057Z,31.01
2017-07-07T08:25:41.154Z,30.35
2017-07-07T08:26:36.136Z,30.22
2017-07-07T08:27:30.243Z,30.09
2017-07-07T08:28:25.343Z,30.65
2017-07-07T08:29:19.384Z,30.90
2017-07-07T08:30:14.549Z,30.48
2017-07-07T08:31:02.620Z,30.80
2017-07-07T08:31:51.793Z,31.06
2017-07-07T08:32:46.812Z,30.55
2017-07-07T08:33:35.885Z,30.69
2017-07-07T08:34:30.970Z,31.10
2017-07-07T08:35:24.999Z,31.07
2017-07-07T08:36:14.101Z,30.23
2017-07-07T08:37:08.258Z,30.70
2017-07-07T08:37:57.264Z,30.66
2017-07-07T08:38:51.350Z,30.56
2017-07-07T08:39:40.439Z,30.56
2017-07-07T08:40:29.676Z,30.70
2017-07-07T08:41:29.614Z,30.69
2017-07-07T08:42:29.760Z,30.90
2017-07-07T08:43:30.840Z,30.70
2017-07-07T08:44:30.882Z,31.08
2017-07-07T08:45:30.911Z,31.25
2017-07-07T08:46:24.992Z,31.32
2017-07-07T08:47:14.136Z,31.35
2017-07-07T08:48:08.168Z,31.45
2017-07-07T08:49:02.400Z,31.50
2017-07-07T08:49:57.402Z,31.62
2017-07-07T08:50:58.463Z,31.70
2017-07-07T08:51:53.469Z,31.19
2017-07-07T08:52:48.644Z,31.14
2017-07-07T08:53:36.765Z,31.22
2017-07-07T08:54:25.756Z,31.04
2017-07-07T08:55:25.945Z,30.64
2017-07-07T08:56:19.974Z,30.06
2017-07-07T08:57:15.048Z,29.72
2017-07-07T08:58:09.138Z,30.13
2017-07-07T08:59:03.180Z,30.42
2017-07-07T08:59:52.415Z,30.63
2017-07-07T09:00:46.437Z,30.27
2017-07-07T09:01:40.584Z,30.12
2017-07-07T09:02:29.638Z,30.35
2017-07-07T09:03:23.612Z,30.48
2017-07-07T09:04:12.766Z,30.56
2017-07-07T09:05:07.914Z,30.49
2017-07-07T09:06:01.865Z,30.61
2017-07-07T09:06:56.016Z,30.69
2017-07-07T09:07:51.047Z,30.65
2017-07-07T09:08:45.073Z,30.82
2017-07-07T09:09:34.187Z,30.76
2017-07-07T09:10:23.319Z,31.07
2017-07-07T09:11:12.389Z,30.78
2017-07-07T09:12:13.549Z,30.91
2017-07-07T09:13:01.588Z,30.95
2017-07-07T09:13:51.057Z,30.74
2017-07-07T09:14:45.766Z,30.49
2017-07-07T09:15:34.863Z,30.42
2017-07-07T09:16:35.855Z,30.50
2017-07-07T09:17:35.946Z,30.58
2017-07-07T09:18:31.116Z,30.84
2017-07-07T09:19:20.175Z,31.14
2017-07-07T09:20:14.216Z,31.21
2017-07-07T09:21:03.315Z,31.06
2017-07-07T09:21:57.441Z,31.02
2017-07-07T09:22:51.480Z,30.81
2017-07-07T09:23:45.638Z,30.26
2017-07-07T09:24:40.693Z,30.31
2017-07-07T09:25:34.761Z,29.83
2017-07-07T09:26:29.857Z,29.63
2017-07-07T09:27:18.928Z,29.08
2017-07-07T09:28:12.996Z,28.64
2017-07-07T09:29:13.149Z,28.50
2017-07-07T09:30:08.181Z,28.09
2017-07-07T09:31:02.379Z,27.67
2017-07-07T09:31:57.418Z,27.41
2017-07-07T09:32:52.498Z,27.19
2017-07-07T09:33:40.574Z,27.35
2017-07-07T09:34:40.578Z,27.81
2017-07-07T09:35:40.692Z,28.32
2017-07-07T09:36:35.801Z,28.37
2017-07-07T09:37:29.974Z,28.50
2017-07-07T09:38:18.983Z,28.89
2017-07-07T09:39:13.077Z,29.18
2017-07-07T09:40:02.169Z,29.46
2017-07-07T09:40:56.247Z,29.72
2017-07-07T09:41:51.300Z,29.92
2017-07-07T09:42:45.448Z,29.79
2017-07-07T09:43:39.482Z,29.40
2017-07-07T09:44:33.525Z,29.27
2017-07-07T09:45:28.626Z,29.38
2017-07-07T09:46:16.750Z,29.69
2017-07-07T09:47:11.932Z,29.36
2017-07-07T09:48:12.136Z,29.16
2017-07-07T09:49:00.965Z,29.28
2017-07-07T09:49:56.074Z,29.31
2017-07-07T09:50:57.102Z,28.85
2017-07-07T09:51:57.207Z,28.77
2017-07-07T09:52:57.316Z,28.76
2017-07-07T09:53:51.291Z,29.05
2017-07-07T09:54:39.432Z,29.58
2017-07-07T09:55:33.500Z,29.70
2017-07-07T09:56:28.591Z,29.85
2017-07-07T09:57:17.754Z,30.09
2017-07-07T09:58:11.803Z,30.24
2017-07-07T09:58:59.914Z,30.13
2017-07-07T09:59:54.898Z,29.83
2017-07-07T10:00:55.064Z,29.53
2017-07-07T10:01:55.167Z,29.31
2017-07-07T10:02:55.163Z,29.71
2017-07-07T10:03:55.255Z,29.85
2017-07-07T10:04:50.403Z,29.30
2017-07-07T10:05:39.370Z,28.76
2017-07-07T10:06:28.500Z,28.16
2017-07-07T10:07:17.602Z,28.06
2017-07-07T10:08:11.720Z,27.92
2017-07-07T10:09:05.838Z,27.99
2017-07-07T10:09:59.903Z,27.90
2017-07-07T10:10:48.934Z,27.69
2017-07-07T10:11:43.014Z,27.60
2017-07-07T10:12:38.114Z,27.59
2017-07-07T10:13:32.168Z,27.52
2017-07-07T10:14:32.267Z,27.37
2017-07-07T10:15:21.319Z,27.66
2017-07-07T10:16:21.404Z,28.10
2017-07-07T10:17:21.556Z,28.54
2017-07-07T10:18:16.583Z,28.89
2017-07-07T10:19:10.747Z,29.05
2017-07-07T10:20:04.818Z,28.84
2017-07-07T10:20:52.865Z,28.84
2017-07-07T10:21:41.852Z,28.93
2017-07-07T10:22:36.977Z,28.95
2017-07-07T10:23:32.100Z,28.93
2017-07-07T10:24:21.195Z,29.12
2017-07-07T10:25:15.258Z,29.46
2017-07-07T10:26:04.387Z,29.78
2017-07-07T10:27:04.430Z,30.06
2017-07-07T10:27:58.521Z,30.46
2017-07-07T10:28:52.673Z,30.72
2017-07-07T10:29:46.625Z,30.98
2017-07-07T10:30:35.753Z,31.17
2017-07-07T10:31:24.830Z,31.13
2017-07-07T10:32:18.979Z,30.90
2017-07-07T10:33:14.067Z,30.39
2017-07-07T10:34:09.088Z,29.81
2017-07-07T10:35:03.202Z,29.65
2017-07-07T10:35:58.255Z,29.47
2017-07-07T10:36:53.361Z,29.01
2017-07-07T10:37:48.491Z,28.73
2017-07-07T10:38:48.472Z,28.41
2017-07-07T10:39:48.603Z,28.14
2017-07-07T10:40:37.691Z,28.12
2017-07-07T10:41:26.694Z,28.04
2017-07-07T10:42:15.966Z,27.86
2017-07-07T10:43:04.905Z,27.86
2017-07-07T10:43:58.963Z,27.94
2017-07-07T10:44:59.091Z,27.76
2017-07-07T10:45:53.126Z,27.96
2017-07-07T10:46:48.249Z,28.44
2017-07-07T10:47:43.315Z,29.02
2017-07-07T10:48:32.465Z,29.35
2017-07-07T10:49:33.451Z,29.81
2017-07-07T10:50:21.616Z,29.96
2017-07-07T10:51:10.714Z,29.94
2017-07-07T10:52:04.791Z,29.96
2017-07-07T10:52:52.899Z,30.03
2017-07-07T10:53:41.031Z,29.98
2017-07-07T10:54:35.088Z,29.98
2017-07-07T10:55:35.138Z,29.70
2017-07-07T10:56:29.157Z,29.76
2017-07-07T10:57:29.300Z,29.56
2017-07-07T10:58:29.515Z,29.49
2017-07-07T10:59:29.477Z,29.20
2017-07-07T11:00:29.579Z,29.43
2017-07-07T11:01:23.552Z,29.77
2017-07-07T11:02:12.764Z,30.23
2017-07-07T11:03:01.726Z,30.55
2017-07-07T11:03:55.892Z,30.68
2017-07-07T11:04:49.966Z,31.10
2017-07-07T11:05:44.009Z,31.43
2017-07-07T11:06:39.170Z,31.64
2017-07-07T11:07:39.188Z,31.55
2017-07-07T11:08:28.290Z,31.78
2017-07-07T11:09:17.469Z,32.00
2017-07-07T11:10:11.399Z,31.82
2017-07-07T11:11:05.518Z,31.09
2017-07-07T11:11:59.580Z,30.58
2017-07-07T11:12:59.678Z,30.15
2017-07-07T11:13:53.756Z,30.16
2017-07-07T11:14:54.827Z,30.33
2017-07-07T11:15:43.877Z,30.62
2017-07-07T11:16:32.007Z,30.87
2017-07-07T11:17:20.084Z,30.90
2017-07-07T11:18:15.259Z,30.91
2017-07-07T11:19:09.345Z,30.74
2017-07-07T11:20:04.552Z,30.60
2017-07-07T11:20:58.460Z,30.71
2017-07-07T11:21:52.520Z,30.57
2017-07-07T11:22:41.661Z,30.38
2017-07-07T11:23:29.794Z,30.44
2017-07-07T11:24:24.739Z,30.58
2017-07-07T11:25:18.914Z,30.84
2017-07-07T11:26:08.032Z,31.05
2017-07-07T11:27:02.020Z,31.27
2017-07-07T11:27:56.103Z,31.26
2017-07-07T11:28:45.215Z,31.12
2017-07-07T11:29:33.244Z,31.15
2017-07-07T11:30:22.345Z,31.18
2017-07-07T11:31:16.455Z,31.23
2017-07-07T11:32:10.550Z,31.62
2017-07-07T11:33:05.606Z,31.78
2017-07-07T11:33:54.709Z,31.58
2017-07-07T11:34:49.806Z,32.02
2017-07-07T11:35:43.903Z,32.47
2017-07-07T11:36:38.920Z,32.92